Daska Weather



Daska's Current Weather

Temprature 34.99o clear sky

clear sky

Rain: 0 %

Min Temprature34.99o
Max Temprature34.99o
Humidity29
Wind Speed1.4 m/h
Sun Rise05:11:46
Sun Set19:06:07
Current Time: 24-Jul-2021 15:05:15
Lat/Lon: 32.3243, 74.3497




Daska's Geo Location



Daska's Weather Forecast

Time Overall Temp Min Temp Max Temp Humidity Wind Speed Rain
24-Jul-2021 (Sat)
17:00:00 clear sky 36.940 36.940 40.850 29 1.45 m/h 0 %
20:00:00 clear sky 37.380 37.380 38.570 32 0.49 m/h 0 %
23:00:00 clear sky 36.150 36.150 36.150 42 3.14 m/h 0 %
25-Jul-2021 (Sun)
02:00:00 broken clouds 34.780 34.780 34.780 48 1.39 m/h 0 %
05:00:00 broken clouds 33.330 33.330 33.330 53 2.15 m/h 0 %
08:00:00 overcast clouds 36.090 36.090 36.090 45 2.06 m/h 0 %
11:00:00 overcast clouds 40.020 40.020 40.020 34 1.93 m/h 0 %
14:00:00 broken clouds 41.940 41.940 41.940 27 1.26 m/h 0 %
17:00:00 broken clouds 41.050 41.050 41.050 30 3.05 m/h 0 %
20:00:00 broken clouds 35.790 35.790 35.790 51 5.55 m/h 0 %
23:00:00 broken clouds 33.770 33.770 33.770 58 5.27 m/h 0 %
26-Jul-2021 (Mon)
02:00:00 light rain 31.640 31.640 31.640 66 4.57 m/h 13 %
05:00:00 overcast clouds 30.610 30.610 30.610 72 5.22 m/h 0 %
08:00:00 overcast clouds 32.330 32.330 32.330 64 5.08 m/h 0 %
11:00:00 broken clouds 37.160 37.160 37.160 47 4.29 m/h 0 %
14:00:00 scattered clouds 40.380 40.380 40.380 37 3.19 m/h 0 %
17:00:00 broken clouds 38.140 38.140 38.140 44 6.52 m/h 0 %
20:00:00 light rain 32.790 32.790 32.790 65 6.43 m/h 188 %
23:00:00 light rain 29.610 29.610 29.610 80 5.95 m/h 271 %
27-Jul-2021 (Tue)
02:00:00 light rain 28.430 28.430 28.430 85 5.81 m/h 22 %
05:00:00 light rain 27.960 27.960 27.960 85 4.79 m/h 11 %
08:00:00 overcast clouds 29.320 29.320 29.320 78 4.73 m/h 0 %
11:00:00 overcast clouds 33.920 33.920 33.920 57 3.82 m/h 0 %
14:00:00 light rain 36.010 36.010 36.010 50 4.49 m/h 27 %
17:00:00 moderate rain 31.980 31.980 31.980 66 6.66 m/h 314 %
20:00:00 light rain 28.740 28.740 28.740 78 6.94 m/h 61 %
23:00:00 moderate rain 27.410 27.410 27.410 83 5.9 m/h 313 %
28-Jul-2021 (Wed)
02:00:00 light rain 26.630 26.630 26.630 85 4.41 m/h 144 %
05:00:00 light rain 26.160 26.160 26.160 89 4.14 m/h 283 %
08:00:00 moderate rain 26.590 26.590 26.590 89 4.17 m/h 324 %
11:00:00 light rain 26.840 26.840 26.840 87 4.43 m/h 226 %
14:00:00 light rain 27.000 27.000 27.000 85 4.13 m/h 166 %
17:00:00 light rain 27.080 27.080 27.080 84 3.4 m/h 143 %
20:00:00 overcast clouds 26.420 26.420 26.420 89 2.54 m/h 0 %
23:00:00 overcast clouds 26.010 26.010 26.010 91 2.4 m/h 0 %
29-Jul-2021 (Thu)
02:00:00 overcast clouds 26.040 26.040 26.040 90 1.94 m/h 0 %
05:00:00 broken clouds 25.650 25.650 25.650 92 1.52 m/h 0 %
08:00:00 clear sky 28.490 28.490 28.490 76 2.27 m/h 0 %
11:00:00 few clouds 33.090 33.090 33.090 57 1.41 m/h 0 %
14:00:00 overcast clouds 34.850 34.850 34.850 50 0.46 m/h 0 %

Famous Cities (60)